UAL3283 KDCA-KLAX
Flight info
| Callsign | UAL3283 |
|---|---|
| Flight time | N/A |
| Altitude | 26000 |
| Route | REBLL5 OTTTO Q176 BICKS/N0458F280 Q176 CIM/N0474F300 J96 DRK J231 HIPPI GABBL HLYWD1 |
| Aircraft | B738/M-SDE2E3FGHIRWXY/LB1 |
Departure
| Time | 2026-04-30 22:30 |
|---|---|
| Airport | Ronald Reagan Washington National Airport (KDCA) |
Arrival
| Time | N/A |
|---|---|
| Airport | Los Angeles International Airport (KLAX) |
| Time | Latitude | Longitude | Altitude | Speed | Heading |
|---|---|---|---|---|---|
| 2026-04-30 21:58 | 38.85006 | -77.04046 | 18 ft | 0 kts | 291° |
| 2026-04-30 22:20 | 38.84997 | -77.04014 | 19 ft | 2 kts | 291° |
| 2026-04-30 22:20 | 38.84991 | -77.03995 | 20 ft | 2 kts | 291° |
| 2026-04-30 22:21 | 38.84985 | -77.03975 | 18 ft | 2 kts | 291° |
| 2026-04-30 22:21 | 38.84984 | -77.03971 | 18 ft | 0 kts | 291° |
| 2026-04-30 22:25 | 38.84978 | -77.03976 | 18 ft | 1 kts | 204° |
| 2026-04-30 22:25 | 38.84952 | -77.03962 | 17 ft | 6 kts | 159° |
| 2026-04-30 22:25 | 38.84908 | -77.03952 | 17 ft | 7 kts | 173° |
| 2026-04-30 22:26 | 38.84821 | -77.03883 | 18 ft | 8 kts | 176° |
| 2026-04-30 22:26 | 38.84765 | -77.03877 | 20 ft | 8 kts | 175° |
| 2026-04-30 22:26 | 38.84711 | -77.03872 | 21 ft | 8 kts | 175° |
| 2026-04-30 22:27 | 38.84641 | -77.03865 | 20 ft | 12 kts | 176° |
| 2026-04-30 22:27 | 38.84559 | -77.03857 | 19 ft | 12 kts | 175° |
| 2026-04-30 22:27 | 38.84409 | -77.03842 | 22 ft | 10 kts | 176° |
| 2026-04-30 22:28 | 38.84296 | -77.03817 | 25 ft | 6 kts | 132° |
| 2026-04-30 22:28 | 38.84274 | -77.03765 | 20 ft | 8 kts | 114° |
| 2026-04-30 22:29 | 38.84180 | -77.03675 | 19 ft | 2 kts | 261° |
| 2026-04-30 22:29 | 38.84193 | -77.03682 | 20 ft | 4 kts | 353° |
| 2026-04-30 22:30 | 38.87324 | -77.03982 | 700 ft | 186 kts | 338° |
| 2026-04-30 22:31 | 38.90662 | -77.08033 | 1570 ft | 241 kts | 298° |
| 2026-04-30 22:32 | 38.93441 | -77.12229 | 1630 ft | 201 kts | 327° |
| 2026-04-30 22:32 | 38.96103 | -77.14363 | 1750 ft | 252 kts | 312° |
| 2026-04-30 22:33 | 38.97617 | -77.20593 | 4103 ft | 249 kts | 278° |
| 2026-04-30 22:33 | 38.98238 | -77.24975 | 5681 ft | 250 kts | 279° |
| 2026-04-30 22:34 | 38.97455 | -77.31479 | 7779 ft | 256 kts | 249° |
| 2026-04-30 22:35 | 38.96060 | -77.35743 | 9174 ft | 261 kts | 249° |
| 2026-04-30 22:36 | 38.93089 | -77.44940 | 10692 ft | 314 kts | 249° |
| 2026-04-30 22:36 | 38.92232 | -77.47608 | 10840 ft | 333 kts | 249° |
| 2026-04-30 22:37 | 38.89411 | -77.56377 | 11703 ft | 369 kts | 249° |
| 2026-04-30 22:37 | 38.88565 | -77.59480 | 12296 ft | 369 kts | 257° |
| 2026-04-30 22:37 | 38.87681 | -77.65992 | 13458 ft | 373 kts | 261° |
| 2026-04-30 22:38 | 38.86803 | -77.72596 | 14478 ft | 378 kts | 260° |
| 2026-04-30 22:38 | 38.85860 | -77.79278 | 15468 ft | 383 kts | 260° |
| 2026-04-30 22:39 | 38.85376 | -77.82648 | 15958 ft | 385 kts | 260° |
| 2026-04-30 22:39 | 38.84507 | -77.92921 | 17392 ft | 391 kts | 272° |
| 2026-04-30 22:40 | 38.84923 | -78.03447 | 18672 ft | 397 kts | 272° |
| 2026-04-30 22:41 | 38.85231 | -78.14117 | 19862 ft | 401 kts | 271° |
| 2026-04-30 22:41 | 38.85417 | -78.21297 | 20593 ft | 405 kts | 271° |
| 2026-04-30 22:42 | 38.85271 | -78.35826 | 22085 ft | 410 kts | 268° |
| 2026-04-30 22:43 | 38.85160 | -78.43162 | 22740 ft | 413 kts | 268° |
| 2026-04-30 22:43 | 38.85062 | -78.50557 | 23369 ft | 416 kts | 269° |
| 2026-04-30 22:44 | 38.84967 | -78.58000 | 23911 ft | 418 kts | 269° |
| 2026-04-30 22:45 | 38.84763 | -78.72953 | 24986 ft | 420 kts | 269° |
| 2026-04-30 22:45 | 38.84672 | -78.79194 | 25676 ft | 415 kts | 269° |
| 2026-04-30 22:46 | 38.84562 | -78.86506 | 25959 ft | 412 kts | 269° |
| 2026-04-30 22:47 | 38.84324 | -79.01227 | 25966 ft | 414 kts | 269° |
| 2026-04-30 22:47 | 38.84197 | -79.08612 | 25965 ft | 415 kts | 269° |
| 2026-04-30 22:48 | 38.84067 | -79.16000 | 25991 ft | 415 kts | 269° |
| 2026-04-30 22:49 | 38.83865 | -79.27089 | 25997 ft | 414 kts | 269° |
| 2026-04-30 22:49 | 38.83656 | -79.38164 | 26853 ft | 410 kts | 269° |
| 2026-04-30 22:50 | 38.83367 | -79.52607 | 28421 ft | 399 kts | 269° |
| 2026-04-30 22:51 | 38.83220 | -79.59658 | 29238 ft | 393 kts | 269° |
| 2026-04-30 22:51 | 38.83071 | -79.66597 | 30127 ft | 385 kts | 269° |
| 2026-04-30 22:52 | 38.82996 | -79.70019 | 30465 ft | 383 kts | 269° |
| 2026-04-30 22:52 | 38.82844 | -79.76849 | 30856 ft | 383 kts | 269° |
| 2026-04-30 22:53 | 38.82688 | -79.83662 | 31372 ft | 381 kts | 269° |
| 2026-04-30 22:53 | 38.82536 | -79.90158 | 31805 ft | 380 kts | 269° |
| 2026-04-30 22:53 | 38.82455 | -79.93543 | 31978 ft | 380 kts | 269° |
| 2026-04-30 22:54 | 38.82287 | -80.00307 | 32437 ft | 378 kts | 269° |
| 2026-04-30 22:55 | 38.82036 | -80.10380 | 33045 ft | 377 kts | 269° |
| 2026-04-30 22:55 | 38.81861 | -80.17121 | 33254 ft | 380 kts | 269° |
| 2026-04-30 22:56 | 38.81676 | -80.23890 | 33553 ft | 379 kts | 268° |
| 2026-04-30 22:56 | 38.81394 | -80.33922 | 34002 ft | 375 kts | 268° |
| 2026-04-30 22:57 | 38.81203 | -80.40615 | 34015 ft | 377 kts | 268° |
| 2026-04-30 22:58 | 38.80802 | -80.54093 | 34007 ft | 379 kts | 268° |
| 2026-04-30 22:59 | 38.80183 | -80.74307 | 34014 ft | 376 kts | 268° |